X  Schliessen METAR Luftfahrt Wetterdaten     LSZB Bern-Belp Airport
Temperatur
26°C Temperatur
11°C Taupunkt
39% Feuchtigkeit



Wind
13 km/h
8 mph
4 m/s
7 kts



300°
WNW
Aktuelle Wetterlage

Klar Klar
Luftdruck 1018.96 (hPa) - 30.09 (inHg)
Sichtweite 6 (Meile) - 9.7 (km)
Flughafen
Flughafen Code LSZB

Position: Bern-Belp Airport
Entfernung: 45 (km)

Metar:
LSZB 141620Z 30007KT 250V330 CAVOK 26/11 Q1019

Zeit: 14-04-2024 18:20 CEST